Terminal Aerodrome Forecast
Issued by NWS

Home | Current Version | Previous Version | Graphics & Text | Print | Product List | Glossary On
Versions: 1 2 3 4 5 6 7 8 9 10 11 12
802
FTUS45 KGGW 191142
TAFSDY
TAF
KSDY 191142Z 1912/2012 21007KT P6SM FEW200
     FM191500 26009KT P6SM FEW180
     FM191800 29016KT P6SM SCT170
     FM200000 33013KT P6SM FEW140
     FM200200 34009KT P6SM FEW230=

USA.gov is the U.S. government's official web portal to all federal, state and local government web resources and services.